Time;durP1;ratioP1;P1;durP2;ratioP2;P2;SDS_P1;SDS_P2;PMS_P1;PMS_P2;Temp;Humidity;BMP_temperature;BMP_pressure;BME280_temperature;BME280_humidity;BME280_pressure;Samples;Min_cycle;Max_cycle;Signal;HPM_P1;HPM_P2
2024/02/09 00:01:36;;;;;;;9.80;7.23;;;3.70;99.90;;;-141.84;100.00;119224.81;5033377;28;20212;-54
2024/02/09 00:04:06;;;;;;;8.33;7.40;;;3.70;99.90;;;-141.84;100.00;119224.81;5041110;28;20299;-54
2024/02/09 00:06:35;;;;;;;8.50;7.60;;;3.70;99.90;;;-141.84;100.00;119224.81;5039151;28;20240;-56
2024/02/09 00:09:04;;;;;;;8.43;7.33;;;3.70;99.90;;;-141.84;100.00;119224.81;5037959;28;20225;-55
2024/02/09 00:11:33;;;;;;;8.70;7.30;;;3.60;99.90;;;-141.84;100.00;119224.81;5038405;28;20229;-56
2024/02/09 00:14:01;;;;;;;8.43;7.37;;;3.60;99.90;;;-141.84;100.00;119224.81;5040112;28;20290;-56
2024/02/09 00:16:31;;;;;;;8.73;7.83;;;3.60;99.90;;;-141.84;100.00;119224.81;5041105;28;20204;-55
2024/02/09 00:19:00;;;;;;;9.30;7.93;;;3.60;99.90;;;-141.84;100.00;119224.81;5039925;28;20256;-53
2024/02/09 00:21:30;;;;;;;9.20;7.83;;;3.70;99.90;;;-141.84;100.00;119224.81;5037927;28;20225;-55
2024/02/09 00:23:58;;;;;;;9.83;7.87;;;3.70;99.90;;;-141.84;100.00;119224.81;5038311;28;20661;-52
2024/02/09 00:26:27;;;;;;;8.93;7.63;;;3.70;99.90;;;-141.84;100.00;119224.81;5037991;28;20236;-52
2024/02/09 00:28:57;;;;;;;10.13;8.03;;;3.70;99.90;;;-141.84;100.00;119224.81;5048651;28;20231;-55
2024/02/09 00:31:25;;;;;;;10.03;8.03;;;3.70;99.90;;;-141.84;100.00;119224.81;5041207;28;20259;-56
2024/02/09 00:33:53;;;;;;;9.93;8.17;;;3.70;99.90;;;-141.84;100.00;119224.81;5034558;28;20244;-56
2024/02/09 00:36:22;;;;;;;10.63;8.17;;;3.70;99.90;;;-141.84;100.00;119224.81;5030444;28;20216;-57
2024/02/09 00:38:52;;;;;;;9.57;7.73;;;3.70;99.90;;;-141.84;100.00;119224.81;5038511;28;20224;-54
2024/02/09 00:41:20;;;;;;;11.80;9.53;;;3.70;99.90;;;-141.84;100.00;119224.81;5041501;28;20222;-57
2024/02/09 00:43:49;;;;;;;13.33;9.07;;;3.70;99.90;;;-141.84;100.00;119224.81;5039424;28;20257;-54
2024/02/09 00:46:17;;;;;;;11.50;9.13;;;3.70;99.90;;;-141.84;100.00;119224.81;5046894;28;20225;-56
2024/02/09 00:48:45;;;;;;;12.43;9.60;;;3.70;99.90;;;-141.84;100.00;119224.81;5041896;28;20332;-53
2024/02/09 00:51:14;;;;;;;12.67;9.50;;;3.70;99.90;;;-141.84;100.00;119224.81;5041722;28;20745;-56
2024/02/09 00:53:42;;;;;;;11.73;9.17;;;3.70;99.90;;;-141.84;100.00;119224.81;5041582;28;20283;-53
2024/02/09 00:56:11;;;;;;;12.33;10.00;;;3.70;99.90;;;-141.84;100.00;119224.81;5044951;28;20206;-56
2024/02/09 00:58:39;;;;;;;10.90;8.37;;;3.70;99.90;;;-141.84;100.00;119224.81;5045405;28;20278;-55
2024/02/09 01:01:09;;;;;;;10.97;9.00;;;3.70;99.90;;;-141.84;100.00;119224.81;5044078;28;20227;-53
2024/02/09 01:03:37;;;;;;;11.80;9.23;;;3.70;99.90;;;-141.84;100.00;119224.81;5045370;28;20220;-55
2024/02/09 01:06:06;;;;;;;12.03;9.50;;;3.80;99.90;;;-141.84;100.00;119224.81;5044468;28;20233;-56
2024/02/09 01:08:35;;;;;;;12.50;9.73;;;3.80;99.90;;;-141.84;100.00;119224.81;5043214;28;20256;-56
2024/02/09 01:11:05;;;;;;;12.07;9.70;;;3.80;99.90;;;-141.84;100.00;119224.81;5041772;28;20212;-56
2024/02/09 02:44:57;;;;;;;17.33;12.87;;;3.80;99.90;;;-141.84;100.00;119224.81;5040264;28;20280;-54
2024/02/09 02:47:25;;;;;;;18.17;12.70;;;3.90;99.90;;;-141.84;100.00;119224.81;5041816;28;20246;-56
2024/02/09 03:06:35;;;;;;;17.33;12.87;;;4.00;99.90;;;-141.84;100.00;119224.81;5034231;28;20327;-54
2024/02/09 03:09:25;;;;;;;19.67;12.80;;;4.00;99.90;;;-141.84;100.00;119224.81;5038473;28;20239;-56
2024/02/09 03:11:55;;;;;;;16.90;12.60;;;4.00;99.90;;;-141.84;100.00;119224.81;5041473;28;20704;-56
2024/02/09 03:14:25;;;;;;;17.37;12.50;;;4.00;99.90;;;-141.84;100.00;119224.81;5044503;28;20281;-54
2024/02/09 03:16:54;;;;;;;18.23;12.70;;;4.10;99.90;;;-141.84;100.00;119224.81;5040917;28;20204;-54
2024/02/09 03:19:23;;;;;;;17.13;12.57;;;4.10;99.90;;;-141.84;100.00;119224.81;5040101;28;20197;-53
2024/02/09 03:21:53;;;;;;;16.17;11.90;;;4.10;99.90;;;-141.84;100.00;119224.81;5039110;28;20720;-52
2024/02/09 03:24:22;;;;;;;19.03;13.33;;;4.10;99.90;;;-141.84;100.00;119224.81;5041406;28;20233;-54
2024/02/09 03:26:52;;;;;;;16.67;12.90;;;4.10;99.90;;;-141.84;100.00;119224.81;5041497;28;20670;-55
2024/02/09 03:29:20;;;;;;;18.27;13.10;;;4.10;99.90;;;-141.84;100.00;119224.81;5041942;28;20224;-55
2024/02/09 03:31:48;;;;;;;20.43;13.50;;;4.10;99.90;;;-141.84;100.00;119224.81;5039629;28;20331;-53
2024/02/09 03:34:18;;;;;;;18.27;12.67;;;4.20;99.90;;;-141.84;100.00;119224.81;5039306;28;20221;-54
2024/02/09 03:36:46;;;;;;;18.20;12.83;;;4.20;99.90;;;-141.84;100.00;119224.81;5039639;28;20237;-55
2024/02/09 03:39:15;;;;;;;18.60;12.80;;;4.20;99.90;;;-141.84;100.00;119224.81;5042025;28;20330;-53
2024/02/09 03:41:43;;;;;;;20.80;13.87;;;4.10;99.90;;;-141.84;100.00;119224.81;5044669;28;20231;-54
2024/02/09 03:44:12;;;;;;;19.00;13.13;;;4.20;99.90;;;-141.84;100.00;119224.81;5040882;28;20294;-54
2024/02/09 03:46:41;;;;;;;18.70;13.80;;;4.20;99.90;;;-141.84;100.00;119224.81;5039820;28;20212;-54
2024/02/09 03:49:11;;;;;;;20.60;13.53;;;4.20;99.90;;;-141.84;100.00;119224.81;5038728;28;20714;-52
2024/02/09 03:51:39;;;;;;;22.60;13.23;;;4.20;99.90;;;-141.84;100.00;119224.81;5040356;28;20228;-53
2024/02/09 03:54:08;;;;;;;20.03;14.17;;;4.20;99.90;;;-141.84;100.00;119224.81;5041560;28;20305;-53
2024/02/09 03:56:36;;;;;;;20.20;13.60;;;4.20;99.90;;;-141.84;100.00;119224.81;5041118;28;20227;-55
2024/02/09 03:59:06;;;;;;;21.80;14.87;;;4.30;99.90;;;-141.84;100.00;119224.81;5032880;28;20197;-54
2024/02/09 04:01:36;;;;;;;22.43;14.27;;;4.30;99.90;;;-141.84;100.00;119224.81;5042247;28;20220;-55
2024/02/09 04:04:04;;;;;;;19.80;13.60;;;4.30;99.90;;;-141.84;100.00;119224.81;5040793;28;20228;-53
2024/02/09 04:06:33;;;;;;;20.47;14.97;;;4.30;99.90;;;-141.84;100.00;119224.81;5046559;28;20288;-51
2024/02/09 04:09:01;;;;;;;20.90;14.10;;;4.30;99.90;;;-141.84;100.00;119224.81;5038597;28;20241;-55
2024/02/09 04:11:49;;;;;;;21.00;13.63;;;4.40;99.90;;;-141.84;100.00;119224.81;5047599;28;20228;-52
2024/02/09 04:14:18;;;;;;;22.67;15.33;;;4.40;99.90;;;-141.84;100.00;119224.81;5040863;28;20224;-55
2024/02/09 04:16:49;;;;;;;22.30;14.97;;;4.40;99.90;;;-141.84;100.00;119224.81;5040690;28;20250;-52
2024/02/09 04:19:18;;;;;;;20.13;14.13;;;4.40;99.90;;;-141.84;100.00;119224.81;5036949;28;20275;-54
2024/02/09 04:21:48;;;;;;;24.23;15.80;;;4.40;99.90;;;-141.84;100.00;119224.81;5040857;28;20231;-54
2024/02/09 04:24:19;;;;;;;21.10;14.30;;;4.50;99.90;;;-141.84;100.00;119224.81;5030859;28;20226;-53
2024/02/09 04:26:47;;;;;;;22.60;14.67;;;4.50;99.90;;;-141.84;100.00;119224.81;5035725;28;20221;-50
2024/02/09 04:29:16;;;;;;;21.77;15.57;;;4.50;99.90;;;-141.84;100.00;119224.81;5041217;28;20699;-54
2024/02/09 04:31:44;;;;;;;22.30;15.20;;;4.60;99.90;;;-141.84;100.00;119224.81;5039082;28;20297;-57
2024/02/09 04:34:14;;;;;;;20.83;14.30;;;4.60;99.90;;;-141.84;100.00;119224.81;5035673;28;20220;-54
2024/02/09 04:36:45;;;;;;;23.87;15.17;;;4.70;99.90;;;-141.84;100.00;119224.81;5040918;28;20229;-55
2024/02/09 04:39:15;;;;;;;22.57;15.43;;;4.70;99.90;;;-141.84;100.00;119224.81;5036527;28;20217;-54
2024/02/09 04:41:46;;;;;;;23.03;15.53;;;4.80;99.90;;;-141.84;100.00;119224.81;5044559;28;20274;-56
2024/02/09 04:44:14;;;;;;;24.00;14.77;;;4.80;99.90;;;-141.84;100.00;119224.81;5039290;28;20253;-56
2024/02/09 04:46:43;;;;;;;21.97;14.70;;;4.90;99.90;;;-141.84;100.00;119224.81;5043305;28;20716;-57
2024/02/09 04:49:13;;;;;;;24.77;15.47;;;4.90;99.90;;;-141.84;100.00;119224.81;5040708;28;20692;-52
2024/02/09 04:51:43;;;;;;;24.03;15.70;;;4.90;99.90;;;-141.84;100.00;119224.81;5032301;28;20352;-53
2024/02/09 04:54:15;;;;;;;22.40;14.37;;;5.00;99.90;;;-141.84;100.00;119224.81;5040682;28;20243;-55
2024/02/09 04:56:44;;;;;;;22.10;14.30;;;5.00;99.90;;;-141.84;100.00;119224.81;5040007;28;20303;-55
2024/02/09 04:59:13;;;;;;;21.63;14.60;;;5.00;99.90;;;-141.84;100.00;119224.81;5038075;28;20244;-55
2024/02/09 05:01:42;;;;;;;23.80;14.37;;;5.00;99.90;;;-141.84;100.00;119224.81;5038577;28;20643;-56
2024/02/09 05:04:12;;;;;;;22.97;14.70;;;5.00;99.90;;;-141.84;100.00;119224.81;5038996;28;20218;-54
2024/02/09 05:06:42;;;;;;;20.07;13.60;;;5.00;99.90;;;-141.84;100.00;119224.81;5039147;28;20249;-52
2024/02/09 05:09:11;;;;;;;22.37;14.83;;;5.10;99.90;;;-141.84;100.00;119224.81;5037971;28;20236;-54
2024/02/09 05:11:40;;;;;;;23.03;15.03;;;5.10;99.90;;;-141.84;100.00;119224.81;5046979;28;20221;-53
2024/02/09 05:14:08;;;;;;;26.13;14.50;;;5.10;99.90;;;-141.84;100.00;119224.81;5040417;28;20645;-56
2024/02/09 05:16:40;;;;;;;23.50;14.60;;;5.20;99.90;;;-141.84;100.00;119224.81;5040973;28;20202;-53
2024/02/09 05:19:10;;;;;;;21.10;13.33;;;5.20;99.90;;;-141.84;100.00;119224.81;5037673;28;20264;-54
2024/02/09 05:21:40;;;;;;;21.43;14.23;;;5.30;99.90;;;-141.84;100.00;119224.81;5037907;28;20222;-54
2024/02/09 05:24:09;;;;;;;21.87;13.27;;;5.30;99.90;;;-141.84;100.00;119224.81;5038898;28;20228;-56
2024/02/09 05:26:38;;;;;;;21.63;13.20;;;5.40;99.90;;;-141.84;100.00;119224.81;5036438;28;20237;-54
2024/02/09 05:29:06;;;;;;;19.47;13.13;;;5.40;99.90;;;-141.84;100.00;119224.81;5041263;28;20205;-56
2024/02/09 05:31:34;;;;;;;19.53;12.83;;;5.40;99.90;;;-141.84;100.00;119224.81;5043676;28;20251;-56
2024/02/09 05:34:03;;;;;;;21.40;12.47;;;5.50;99.90;;;-141.84;100.00;119224.81;5043751;28;20236;-56
2024/02/09 05:36:32;;;;;;;18.23;12.20;;;5.50;99.90;;;-141.84;100.00;119224.81;5044214;28;20217;-57
2024/02/09 05:39:02;;;;;;;20.63;12.17;;;5.50;99.90;;;-141.84;100.00;119224.81;5041390;28;20240;-57
2024/02/09 05:41:31;;;;;;;22.27;12.07;;;5.60;99.90;;;-141.84;100.00;119224.81;5046452;28;20732;-55
2024/02/09 05:44:00;;;;;;;22.97;13.30;;;5.60;99.90;;;-141.84;100.00;119224.81;5043427;28;20251;-53
2024/02/09 05:46:28;;;;;;;20.53;11.50;;;5.70;99.90;;;-141.84;100.00;119224.81;5041671;28;20288;-55
2024/02/09 05:48:57;;;;;;;21.57;10.97;;;5.70;99.90;;;-141.84;100.00;119224.81;5040898;28;20222;-55
2024/02/09 05:51:25;;;;;;;20.13;9.90;;;5.80;99.90;;;-141.84;100.00;119224.81;5041393;28;20237;-57
2024/02/09 05:53:53;;;;;;;15.00;8.07;;;5.80;99.90;;;-141.84;100.00;119224.81;5043654;28;20226;-56
2024/02/09 05:56:26;;;;;;;19.47;8.40;;;6.00;99.90;;;-141.84;100.00;119224.81;5043578;28;20612;-56
2024/02/09 05:58:56;;;;;;;16.37;7.50;;;6.10;99.90;;;-141.84;100.00;119224.81;5041853;28;20196;-56
2024/02/09 06:01:31;;;;;;;20.47;7.50;;;6.30;99.90;;;-141.84;100.00;119224.81;5041659;28;20189;-55
2024/02/09 06:03:59;;;;;;;18.87;6.93;;;6.50;99.90;;;-141.84;100.00;119224.81;5040528;28;20225;-55
2024/02/09 06:06:28;;;;;;;18.13;7.17;;;6.60;99.90;;;-141.84;100.00;119224.81;5040261;28;20225;-54
2024/02/09 06:08:56;;;;;;;16.00;7.50;;;6.80;99.90;;;-141.84;100.00;119224.81;5038181;28;20225;-54
2024/02/09 06:11:25;;;;;;;15.50;7.10;;;6.90;99.90;;;-141.84;100.00;119224.81;5048612;28;20241;-56
2024/02/09 06:13:55;;;;;;;19.50;7.50;;;7.00;99.90;;;-141.84;100.00;119224.81;5042903;28;20553;-57
2024/02/09 06:16:23;;;;;;;16.87;6.43;;;7.10;99.90;;;-141.84;100.00;119224.81;5043679;28;20570;-55
2024/02/09 06:18:52;;;;;;;18.17;7.00;;;7.10;99.90;;;-141.84;100.00;119224.81;5041051;28;20221;-57
2024/02/09 06:21:20;;;;;;;14.97;5.63;;;7.20;99.90;;;-141.84;100.00;119224.81;5040671;28;20291;-56
2024/02/09 06:23:51;;;;;;;14.40;6.10;;;7.20;99.90;;;-141.84;100.00;119224.81;5040650;28;20229;-53
2024/02/09 06:26:23;;;;;;;15.07;6.60;;;7.20;99.90;;;-141.84;100.00;119224.81;5042265;28;20697;-54
2024/02/09 06:28:52;;;;;;;15.03;6.30;;;7.30;99.90;;;-141.84;100.00;119224.81;5046211;28;20281;-55
2024/02/09 06:31:25;;;;;;;18.47;6.63;;;7.30;99.90;;;-141.84;100.00;119224.81;5040849;28;20218;-56
2024/02/09 06:33:58;;;;;;;15.53;5.67;;;7.40;99.90;;;-141.84;100.00;119224.81;5040361;28;20226;-55
2024/02/09 06:36:29;;;;;;;13.80;5.43;;;7.40;99.90;;;-141.84;100.00;119224.81;5040262;28;20280;-56
2024/02/09 06:38:58;;;;;;;15.80;5.00;;;7.50;99.90;;;-141.84;100.00;119224.81;5042202;28;20234;-56
2024/02/09 06:41:27;;;;;;;15.47;5.17;;;7.50;99.90;;;-141.84;100.00;119224.81;5044564;28;20221;-55
2024/02/09 06:43:57;;;;;;;13.00;5.33;;;7.60;99.90;;;-141.84;100.00;119224.81;5043054;28;20225;-57
2024/02/09 06:46:26;;;;;;;11.17;5.20;;;7.70;99.90;;;-141.84;100.00;119224.81;5050835;28;20197;-55
2024/02/09 06:48:56;;;;;;;12.93;6.20;;;7.70;99.90;;;-141.84;100.00;119224.81;5042600;28;20261;-56
2024/02/09 06:51:25;;;;;;;11.73;5.53;;;7.80;99.90;;;-141.84;100.00;119224.81;5041435;28;20312;-54
2024/02/09 06:53:55;;;;;;;13.50;5.40;;;7.80;99.90;;;-141.84;100.00;119224.81;5040038;28;20760;-54
2024/02/09 06:56:23;;;;;;;13.80;5.37;;;7.80;99.90;;;-141.84;100.00;119224.81;5042353;28;20388;-56
2024/02/09 06:58:52;;;;;;;10.83;5.53;;;7.80;99.90;;;-141.84;100.00;119224.81;5039777;28;20208;-57
2024/02/09 07:01:21;;;;;;;14.50;4.60;;;7.80;99.90;;;-141.84;100.00;119224.81;5039001;28;20218;-55
2024/02/09 07:03:53;;;;;;;15.20;4.93;;;7.90;99.90;;;-141.84;100.00;119224.81;5039315;28;20862;-55
2024/02/09 07:06:22;;;;;;;11.63;5.27;;;7.80;99.90;;;-141.84;100.00;119224.81;5038451;28;20233;-56
2024/02/09 07:08:53;;;;;;;12.00;5.90;;;7.80;99.90;;;-141.84;100.00;119224.81;5038917;28;20642;-56
2024/02/09 07:11:21;;;;;;;13.37;5.70;;;7.80;99.90;;;-141.84;100.00;119224.81;5047816;28;20236;-56
2024/02/09 07:13:50;;;;;;;15.47;5.67;;;7.80;99.90;;;-141.84;100.00;119224.81;5035568;28;20193;-56
2024/02/09 07:16:19;;;;;;;13.47;5.67;;;7.90;99.90;;;-141.84;100.00;119224.81;5036121;28;20793;-56
2024/02/09 07:18:47;;;;;;;11.23;5.10;;;7.90;99.90;;;-141.84;100.00;119224.81;5039903;28;20644;-53
2024/02/09 07:21:17;;;;;;;12.03;5.00;;;7.80;99.90;;;-141.84;100.00;119224.81;5043692;28;20217;-51
2024/02/09 07:23:49;;;;;;;9.40;4.57;;;7.90;99.90;;;-141.84;100.00;119224.81;5043232;28;20302;-55
2024/02/09 07:26:20;;;;;;;11.63;5.13;;;7.90;99.90;;;-141.84;100.00;119224.81;5034116;28;20226;-55
2024/02/09 07:28:48;;;;;;;8.50;4.57;;;7.90;99.90;;;-141.84;100.00;119224.81;5037238;28;20187;-54
2024/02/09 07:31:17;;;;;;;8.87;4.33;;;7.90;99.90;;;-141.84;100.00;119224.81;5038629;28;20221;-57
2024/02/09 07:33:46;;;;;;;12.50;4.83;;;7.90;99.90;;;-141.84;100.00;119224.81;5036346;28;20218;-55
2024/02/09 07:36:15;;;;;;;9.60;4.53;;;7.90;99.90;;;-141.84;100.00;119224.81;5036643;28;20228;-53
2024/02/09 07:38:44;;;;;;;11.23;4.23;;;8.00;99.90;;;-141.84;100.00;119224.81;5036824;28;20316;-55
2024/02/09 07:41:13;;;;;;;8.40;3.90;;;8.00;99.90;;;-141.84;100.00;119224.81;5037474;28;20226;-54
2024/02/09 07:43:41;;;;;;;8.33;3.67;;;8.00;99.90;;;-141.84;100.00;119224.81;5040955;28;20254;-56
2024/02/09 07:46:12;;;;;;;9.47;3.80;;;8.10;99.90;;;-141.84;100.00;119224.81;5037847;28;20221;-56
2024/02/09 07:48:41;;;;;;;7.37;3.67;;;8.10;99.90;;;-141.84;100.00;119224.81;5036546;28;20300;-54
2024/02/09 07:51:09;;;;;;;7.50;3.53;;;8.20;99.90;;;-141.84;100.00;119224.81;5035901;28;20224;-55
2024/02/09 07:53:37;;;;;;;7.70;3.30;;;8.20;99.90;;;-141.84;100.00;119224.81;5036119;28;20222;-56
2024/02/09 07:56:08;;;;;;;5.77;3.10;;;8.20;99.90;;;-141.84;100.00;119224.81;5040107;28;20626;-53
2024/02/09 07:58:36;;;;;;;8.03;3.23;;;8.20;99.90;;;-141.84;100.00;119224.81;5036245;28;20187;-54
2024/02/09 08:01:05;;;;;;;6.60;3.33;;;8.30;99.90;;;-141.84;100.00;119224.81;5035217;28;20228;-54
2024/02/09 08:03:38;;;;;;;7.57;2.97;;;8.30;99.90;;;-141.84;100.00;119224.81;5038132;28;20237;-54
2024/02/09 08:06:06;;;;;;;5.00;2.90;;;8.30;99.90;;;-141.84;100.00;119224.81;5033410;28;20245;-55
2024/02/09 08:08:36;;;;;;;5.30;3.17;;;8.30;99.90;;;-141.84;100.00;119224.81;5035813;28;20885;-54
2024/02/09 08:11:05;;;;;;;5.23;2.77;;;8.30;99.90;;;-141.84;100.00;119224.81;5037250;28;20275;-54
2024/02/09 08:13:37;;;;;;;6.37;2.67;;;8.30;99.90;;;-141.84;100.00;119224.81;5040067;28;20285;-56
2024/02/09 08:16:06;;;;;;;8.60;3.30;;;8.40;99.90;;;-141.84;100.00;119224.81;5042096;28;20297;-55
2024/02/09 08:18:34;;;;;;;3.87;2.27;;;8.40;99.90;;;-141.84;100.00;119224.81;5040451;28;20707;-56
2024/02/09 08:21:03;;;;;;;4.03;2.60;;;8.40;99.90;;;-141.84;100.00;119224.81;5039711;28;20232;-56
2024/02/09 08:23:31;;;;;;;3.90;2.63;;;8.50;99.90;;;-141.84;100.00;119224.81;5042643;28;20673;-55
2024/02/09 08:25:59;;;;;;;5.97;2.60;;;8.60;99.90;;;-141.84;100.00;119224.81;5041141;28;20284;-55
2024/02/09 08:28:29;;;;;;;4.00;2.60;;;8.60;99.90;;;-141.84;100.00;119224.81;5042800;28;20193;-55
2024/02/09 08:30:57;;;;;;;4.57;2.47;;;8.60;99.90;;;-141.84;100.00;119224.81;5037277;28;20910;-54
2024/02/09 08:33:26;;;;;;;3.70;2.30;;;8.70;99.90;;;-141.84;100.00;119224.81;5041411;28;20285;-55
2024/02/09 08:35:54;;;;;;;4.13;2.20;;;8.70;99.90;;;-141.84;100.00;119224.81;5036317;28;20251;-56
2024/02/09 08:38:22;;;;;;;5.80;2.80;;;8.70;99.90;;;-141.84;100.00;119224.81;5034096;28;20230;-59
2024/02/09 08:40:51;;;;;;;3.03;2.33;;;8.70;99.90;;;-141.84;100.00;119224.81;5040628;28;20189;-54
2024/02/09 08:43:19;;;;;;;5.13;2.03;;;8.80;99.90;;;-141.84;100.00;119224.81;5049632;28;20236;-56
2024/02/09 08:45:49;;;;;;;3.80;2.23;;;8.70;99.90;;;-141.84;100.00;119224.81;5047765;28;20244;-56
2024/02/09 08:48:17;;;;;;;3.70;1.90;;;8.80;99.90;;;-141.84;100.00;119224.81;5038445;28;20253;-56
2024/02/09 08:50:49;;;;;;;3.60;2.10;;;8.90;99.90;;;-141.84;100.00;119224.81;5038220;28;20301;-56
2024/02/09 08:53:17;;;;;;;3.27;2.07;;;8.90;99.90;;;-141.84;100.00;119224.81;5032669;28;20218;-56
2024/02/09 08:55:45;;;;;;;3.43;1.90;;;9.00;99.90;;;-141.84;100.00;119224.81;5038632;28;20291;-57
2024/02/09 08:58:14;;;;;;;4.87;1.57;;;9.00;99.90;;;-141.84;100.00;119224.81;5040572;28;20291;-56
2024/02/09 09:00:42;;;;;;;3.23;1.60;;;9.00;99.90;;;-141.84;100.00;119224.81;5040250;28;20228;-55
2024/02/09 09:03:27;;;;;;;3.00;1.60;;;9.00;99.90;;;-141.84;100.00;119224.81;5041936;28;20308;-54
2024/02/09 09:05:55;;;;;;;2.17;1.67;;;9.10;99.90;;;-141.84;100.00;119224.81;5041638;28;20226;-54
2024/02/09 09:08:24;;;;;;;3.00;1.90;;;9.10;99.90;;;-141.84;100.00;119224.81;5044095;28;20688;-55
2024/02/09 09:10:53;;;;;;;2.70;1.60;;;9.10;99.90;;;-141.84;100.00;119224.81;5043823;28;20302;-56
2024/02/09 09:13:21;;;;;;;2.67;2.03;;;9.10;99.90;;;-141.84;100.00;119224.81;5044248;28;20221;-56
2024/02/09 09:15:49;;;;;;;2.67;1.90;;;9.10;99.90;;;-141.84;100.00;119224.81;5044086;28;20217;-56
2024/02/09 09:18:17;;;;;;;3.00;1.73;;;9.00;99.90;;;-141.84;100.00;119224.81;5037198;28;20250;-57
2024/02/09 09:20:47;;;;;;;1.73;1.50;;;9.10;99.90;;;-141.84;100.00;119224.81;5050458;28;20245;-56
2024/02/09 09:23:16;;;;;;;3.90;1.80;;;9.10;99.90;;;-141.84;100.00;119224.81;5041902;28;20245;-58
2024/02/09 09:25:44;;;;;;;2.93;1.37;;;9.20;99.90;;;-141.84;100.00;119224.81;5042236;28;20284;-55
2024/02/09 09:28:14;;;;;;;2.07;1.37;;;9.30;99.90;;;-141.84;100.00;119224.81;5043011;28;20222;-57
2024/02/09 09:30:44;;;;;;;3.47;1.50;;;9.40;99.90;;;-141.84;100.00;119224.81;5039183;28;20232;-54
2024/02/09 09:33:12;;;;;;;1.87;1.43;;;9.50;99.90;;;-141.84;100.00;119224.81;5041382;28;20261;-57
2024/02/09 09:35:41;;;;;;;1.63;1.30;;;9.20;99.90;;;-141.84;100.00;119224.81;5041643;28;20229;-57
2024/02/09 09:38:11;;;;;;;2.40;1.33;;;9.60;99.90;;;-141.84;100.00;119224.81;5041802;28;20209;-55
2024/02/09 09:40:42;;;;;;;2.40;1.53;;;9.70;99.90;;;-141.84;100.00;119224.81;5043021;28;20645;-57
2024/02/09 09:43:10;;;;;;;3.30;1.50;;;9.80;99.90;;;-141.84;100.00;119224.81;5044019;28;20764;-59
2024/02/09 09:45:39;;;;;;;1.67;1.30;;;9.80;99.90;;;-141.84;100.00;119224.81;5050359;28;20241;-57
2024/02/09 09:48:14;;;;;;;3.33;1.20;;;9.90;99.90;;;-141.84;100.00;119224.81;5050020;28;20229;-57
2024/02/09 09:50:43;;;;;;;2.37;1.33;;;10.00;99.90;;;-141.84;100.00;119222.75;5041586;28;20752;-55
2024/02/09 09:53:15;;;;;;;2.40;1.43;;;10.00;99.90;;;-141.84;100.00;119224.81;5041312;28;20312;-55
2024/02/09 09:55:46;;;;;;;2.17;1.33;;;10.00;99.90;;;-141.84;100.00;119224.81;5035225;28;20224;-57
2024/02/09 09:58:15;;;;;;;2.30;1.40;;;10.00;99.90;;;-141.84;100.00;119224.81;5040973;28;20759;-55
2024/02/09 10:00:46;;;;;;;3.90;1.40;;;9.90;99.90;;;-141.84;100.00;119224.81;5040973;28;20561;-56
2024/02/09 10:03:17;;;;;;;1.67;1.10;;;9.90;99.90;;;-141.84;100.00;119224.81;5040922;28;20224;-57
2024/02/09 10:05:45;;;;;;;3.00;1.50;;;9.90;99.90;;;-141.84;100.00;119224.81;5040901;28;20275;-53
2024/02/09 10:08:15;;;;;;;1.93;1.10;;;9.90;99.90;;;-141.84;100.00;119224.81;5043236;28;20234;-56
2024/02/09 10:10:46;;;;;;;2.17;1.50;;;9.80;99.90;;;-141.84;100.00;119224.81;5044040;28;20193;-56
2024/02/09 10:13:14;;;;;;;2.53;1.30;;;9.70;99.90;;;-141.84;100.00;119224.81;5043529;28;20224;-55
2024/02/09 10:15:47;;;;;;;2.00;1.30;;;9.70;99.90;;;-141.84;100.00;119224.81;5037400;28;20222;-57
2024/02/09 10:18:15;;;;;;;1.63;1.33;;;9.80;99.90;;;-141.84;100.00;119224.81;5039231;28;20229;-59
2024/02/09 10:20:45;;;;;;;2.90;1.10;;;9.80;99.90;;;-141.84;100.00;119224.81;5038399;28;20229;-57
2024/02/09 10:23:15;;;;;;;2.53;1.23;;;9.90;99.90;;;-141.84;100.00;119222.75;5041237;28;20233;-57
2024/02/09 10:25:43;;;;;;;2.13;1.20;;;9.90;99.90;;;-141.84;100.00;119224.81;5041907;28;20741;-58
2024/02/09 10:28:13;;;;;;;2.23;1.10;;;9.90;99.90;;;-141.84;100.00;119224.81;5037247;28;20217;-56
2024/02/09 10:30:43;;;;;;;1.97;1.10;;;9.90;99.90;;;-141.84;100.00;119224.81;5033929;28;20222;-57
2024/02/09 10:33:11;;;;;;;1.33;1.17;;;9.90;99.90;;;-141.84;100.00;119224.81;5040538;28;20368;-55
2024/02/09 10:35:40;;;;;;;2.27;1.30;;;9.90;99.90;;;-141.84;100.00;119224.81;5040522;28;20249;-53
2024/02/09 10:38:08;;;;;;;1.67;1.20;;;10.00;99.90;;;-141.84;100.00;116290.06;5039764;28;20201;-55
2024/02/09 10:40:38;;;;;;;1.70;1.20;;;10.30;99.90;;;-141.84;100.00;115490.59;5037788;28;20245;-54
2024/02/09 10:43:08;;;;;;;1.90;1.00;;;10.40;99.90;;;-141.84;100.00;116290.06;5037454;28;20222;-56
2024/02/09 10:45:41;;;;;;;1.87;1.33;;;10.50;99.90;;;-141.84;100.00;110697.16;5044033;28;20225;-57
2024/02/09 10:48:14;;;;;;;2.37;1.20;;;10.60;99.90;;;-141.84;98.44;106706.94;5041819;28;20591;-55
2024/02/09 10:50:44;;;;;;;1.40;1.30;;;10.70;99.90;;;-141.84;99.54;109366.66;5041544;28;20275;-55
2024/02/09 10:53:23;;;;;;;2.42;1.10;;;10.80;99.90;;;-141.84;98.05;105909.34;5043287;28;20252;-56
2024/02/09 10:56:04;;;;;;;2.17;1.30;;;10.90;99.90;;;-141.84;95.33;100596.16;5040210;28;20186;-55
2024/02/09 10:58:34;;;;;;;1.47;1.10;;;11.10;99.90;;;-141.84;93.25;96085.44;5041114;28;20213;-55
2024/02/09 11:01:05;;;;;;;1.43;1.17;;;11.20;99.90;;;-141.84;95.74;101392.69;5036355;28;20239;-55
2024/02/09 11:03:34;;;;;;;1.27;1.10;;;11.20;99.90;;;-141.84;97.03;104314.66;5037605;28;20241;-55
2024/02/09 11:06:04;;;;;;;2.03;1.20;;;11.20;99.90;;;-141.84;98.09;106441.06;5037461;28;20237;-54
2024/02/09 11:08:35;;;;;;;3.17;1.37;;;11.20;99.90;;;-141.84;95.04;101658.25;5035257;28;20225;-56
2024/02/09 11:11:06;;;;;;;2.07;1.10;;;11.30;99.90;;;-141.84;90.77;90255.47;5041843;28;20228;-56
2024/02/09 11:13:34;;;;;;;2.30;1.30;;;11.40;99.90;;;-141.84;93.01;95024.81;5034449;28;20226;-56
2024/02/09 11:16:03;;;;;;;2.03;1.30;;;11.30;99.90;;;-141.84;94.85;99534.38;5038443;28;20224;-56
2024/02/09 11:18:32;;;;;;;1.80;1.10;;;11.30;99.90;;;-141.84;95.75;101658.25;5040318;28;20221;-56
2024/02/09 11:21:05;;;;;;;1.33;1.10;;;11.30;99.90;;;-141.84;94.84;99534.38;5037945;28;20217;-54
2024/02/09 11:23:34;;;;;;;2.00;1.30;;;11.30;99.90;;;-141.84;95.15;100596.16;5038031;28;20251;-57
2024/02/09 11:26:07;;;;;;;2.17;1.20;;;11.40;99.90;;;-141.84;95.65;101923.81;5035223;28;20217;-56
2024/02/09 11:28:35;;;;;;;3.20;1.73;;;11.40;99.90;;;-141.84;94.88;101127.16;5039270;28;20240;-54
2024/02/09 11:31:10;;;;;;;2.60;1.10;;;11.50;99.90;;;-141.84;93.71;97942.19;5036714;28;20303;-58
2024/02/09 11:33:41;;;;;;;1.83;1.20;;;11.50;99.90;;;-141.84;94.14;99534.38;5038528;28;20890;-54
2024/02/09 11:36:10;;;;;;;2.00;1.27;;;11.60;99.90;;;-141.84;93.37;96881.06;5032461;28;20222;-56
2024/02/09 11:38:39;;;;;;;1.67;1.27;;;11.60;99.90;;;-141.84;92.71;94759.69;5041352;28;20228;-55
2024/02/09 11:41:09;;;;;;;1.07;0.93;;;11.60;99.90;;;-141.84;92.44;94494.59;5049234;28;20209;-57
2024/02/09 11:43:37;;;;;;;1.20;1.10;;;11.70;99.90;;;-141.84;91.64;93169.38;5042223;28;20276;-52
2024/02/09 11:46:07;;;;;;;1.53;1.30;;;11.70;99.90;;;-141.84;91.58;92374.47;5038035;28;20257;-54
2024/02/09 11:48:39;;;;;;;1.70;1.42;;;11.70;99.90;;;-141.84;91.75;92904.41;5037574;28;20218;-54
2024/02/09 11:51:07;;;;;;;1.70;1.33;;;11.80;99.90;;;-141.84;90.26;88666.94;5039692;28;20309;-54
2024/02/09 11:53:37;;;;;;;1.63;1.20;;;11.80;99.90;;;-141.84;89.38;86020.75;5037444;28;20592;-53